sensor_id;sensor_type;location;lat;lon;timestamp;temperature;humidity
53254;DHT22;39148;53.332;6.922;2022-09-01T00:01:13;20.80;74.10
53254;DHT22;39148;53.332;6.922;2022-09-01T00:03:49;20.80;74.40
53254;DHT22;39148;53.332;6.922;2022-09-01T00:06:23;20.70;75.90
53254;DHT22;39148;53.332;6.922;2022-09-01T00:08:49;20.80;75.50
53254;DHT22;39148;53.332;6.922;2022-09-01T00:11:15;20.70;75.40
53254;DHT22;39148;53.332;6.922;2022-09-01T00:13:41;20.70;75.30
53254;DHT22;39148;53.332;6.922;2022-09-01T00:16:08;20.70;75.20
53254;DHT22;39148;53.332;6.922;2022-09-01T00:18:36;20.60;75.30
53254;DHT22;39148;53.332;6.922;2022-09-01T00:21:01;20.70;75.30
53254;DHT22;39148;53.332;6.922;2022-09-01T00:23:27;20.70;75.20
53254;DHT22;39148;53.332;6.922;2022-09-01T00:25:54;20.60;75.40
53254;DHT22;39148;53.332;6.922;2022-09-01T00:28:20;20.60;75.30
53254;DHT22;39148;53.332;6.922;2022-09-01T00:30:46;20.50;75.30
53254;DHT22;39148;53.332;6.922;2022-09-01T00:33:11;20.60;75.30
53254;DHT22;39148;53.332;6.922;2022-09-01T00:35:37;20.60;75.30
53254;DHT22;39148;53.332;6.922;2022-09-01T00:38:03;20.60;75.40
53254;DHT22;39148;53.332;6.922;2022-09-01T00:40:28;20.60;75.40
53254;DHT22;39148;53.332;6.922;2022-09-01T00:42:54;20.70;75.40
53254;DHT22;39148;53.332;6.922;2022-09-01T00:45:20;20.50;75.30
53254;DHT22;39148;53.332;6.922;2022-09-01T00:47:47;20.50;75.40
53254;DHT22;39148;53.332;6.922;2022-09-01T00:50:16;20.60;75.60
53254;DHT22;39148;53.332;6.922;2022-09-01T00:52:52;20.50;75.60
53254;DHT22;39148;53.332;6.922;2022-09-01T00:55:29;20.50;75.70
53254;DHT22;39148;53.332;6.922;2022-09-01T00:57:55;20.40;75.70
53254;DHT22;39148;53.332;6.922;2022-09-01T01:00:26;20.40;75.50
53254;DHT22;39148;53.332;6.922;2022-09-01T01:02:52;20.40;75.60
53254;DHT22;39148;53.332;6.922;2022-09-01T01:05:45;20.40;75.60
53254;DHT22;39148;53.332;6.922;2022-09-01T01:08:16;20.40;75.80
53254;DHT22;39148;53.332;6.922;2022-09-01T01:10:46;20.40;75.60
53254;DHT22;39148;53.332;6.922;2022-09-01T01:13:14;20.20;75.40
53254;DHT22;39148;53.332;6.922;2022-09-01T01:15:42;20.40;76.10
53254;DHT22;39148;53.332;6.922;2022-09-01T01:18:15;20.40;75.60
53254;DHT22;39148;53.332;6.922;2022-09-01T01:20:41;20.30;75.70
53254;DHT22;39148;53.332;6.922;2022-09-01T01:23:36;20.40;75.60
53254;DHT22;39148;53.332;6.922;2022-09-01T01:26:06;20.30;74.60
53254;DHT22;39148;53.332;6.922;2022-09-01T01:28:36;20.30;75.60
53254;DHT22;39148;53.332;6.922;2022-09-01T01:31:08;20.30;75.70
53254;DHT22;39148;53.332;6.922;2022-09-01T01:33:49;20.30;74.40
53254;DHT22;39148;53.332;6.922;2022-09-01T01:36:18;20.30;75.70
53254;DHT22;39148;53.332;6.922;2022-09-01T01:38:47;20.30;75.70
53254;DHT22;39148;53.332;6.922;2022-09-01T01:41:15;20.20;75.70
53254;DHT22;39148;53.332;6.922;2022-09-01T01:43:42;20.20;75.70
53254;DHT22;39148;53.332;6.922;2022-09-01T01:46:09;20.30;75.60
53254;DHT22;39148;53.332;6.922;2022-09-01T01:48:38;20.20;75.70
53254;DHT22;39148;53.332;6.922;2022-09-01T01:51:06;20.20;75.70
53254;DHT22;39148;53.332;6.922;2022-09-01T01:53:33;20.10;75.60
53254;DHT22;39148;53.332;6.922;2022-09-01T01:55:59;20.20;75.70
53254;DHT22;39148;53.332;6.922;2022-09-01T01:58:26;20.20;75.70
53254;DHT22;39148;53.332;6.922;2022-09-01T02:00:55;20.20;75.80
53254;DHT22;39148;53.332;6.922;2022-09-01T02:03:24;20.20;75.80
53254;DHT22;39148;53.332;6.922;2022-09-01T02:05:52;20.10;75.80
53254;DHT22;39148;53.332;6.922;2022-09-01T02:08:20;20.20;75.80
53254;DHT22;39148;53.332;6.922;2022-09-01T02:10:49;20.10;75.80
53254;DHT22;39148;53.332;6.922;2022-09-01T02:13:17;20.10;75.80
53254;DHT22;39148;53.332;6.922;2022-09-01T02:15:49;22.40;77.00
53254;DHT22;39148;53.332;6.922;2022-09-01T02:18:32;20.10;75.90
53254;DHT22;39148;53.332;6.922;2022-09-01T02:21:00;20.10;76.00
53254;DHT22;39148;53.332;6.922;2022-09-01T02:23:27;20.10;75.80
53254;DHT22;39148;53.332;6.922;2022-09-01T02:25:57;20.10;75.80
53254;DHT22;39148;53.332;6.922;2022-09-01T02:28:25;20.00;75.80
53254;DHT22;39148;53.332;6.922;2022-09-01T02:30:53;20.00;76.00
53254;DHT22;39148;53.332;6.922;2022-09-01T02:33:21;20.00;75.70
53254;DHT22;39148;53.332;6.922;2022-09-01T02:35:52;20.00;75.80
53254;DHT22;39148;53.332;6.922;2022-09-01T02:38:18;20.00;76.00
53254;DHT22;39148;53.332;6.922;2022-09-01T02:40:46;19.90;75.80
53254;DHT22;39148;53.332;6.922;2022-09-01T02:43:14;20.00;75.90
53254;DHT22;39148;53.332;6.922;2022-09-01T02:45:46;20.00;75.90
53254;DHT22;39148;53.332;6.922;2022-09-01T02:48:12;20.00;75.90
53254;DHT22;39148;53.332;6.922;2022-09-01T02:50:39;20.00;75.90
53254;DHT22;39148;53.332;6.922;2022-09-01T02:53:07;20.00;76.00
53254;DHT22;39148;53.332;6.922;2022-09-01T02:55:41;19.90;75.90
53254;DHT22;39148;53.332;6.922;2022-09-01T02:58:07;19.90;76.10
53254;DHT22;39148;53.332;6.922;2022-09-01T03:00:36;19.90;75.90
53254;DHT22;39148;53.332;6.922;2022-09-01T03:03:05;20.10;76.00
53254;DHT22;39148;53.332;6.922;2022-09-01T03:05:32;19.90;76.00
53254;DHT22;39148;53.332;6.922;2022-09-01T03:08:06;19.80;75.90
53254;DHT22;39148;53.332;6.922;2022-09-01T03:10:37;19.70;76.10
53254;DHT22;39148;53.332;6.922;2022-09-01T03:13:14;19.80;76.10
53254;DHT22;39148;53.332;6.922;2022-09-01T03:15:40;19.80;74.90
53254;DHT22;39148;53.332;6.922;2022-09-01T03:18:08;19.90;76.10
53254;DHT22;39148;53.332;6.922;2022-09-01T03:20:36;19.80;76.10
53254;DHT22;39148;53.332;6.922;2022-09-01T03:23:06;19.80;76.10
53254;DHT22;39148;53.332;6.922;2022-09-01T03:25:33;19.80;76.20
53254;DHT22;39148;53.332;6.922;2022-09-01T03:27:59;19.70;76.10
53254;DHT22;39148;53.332;6.922;2022-09-01T03:30:27;19.80;76.00
53254;DHT22;39148;53.332;6.922;2022-09-01T03:32:58;19.80;76.10
53254;DHT22;39148;53.332;6.922;2022-09-01T03:35:25;19.80;74.90
53254;DHT22;39148;53.332;6.922;2022-09-01T03:37:51;19.70;76.10
53254;DHT22;39148;53.332;6.922;2022-09-01T03:40:17;19.70;75.90
53254;DHT22;39148;53.332;6.922;2022-09-01T03:42:44;19.70;76.00
53254;DHT22;39148;53.332;6.922;2022-09-01T03:45:11;19.70;76.00
53254;DHT22;39148;53.332;6.922;2022-09-01T03:47:41;19.70;76.10
53254;DHT22;39148;53.332;6.922;2022-09-01T03:50:18;19.70;76.20
53254;DHT22;39148;53.332;6.922;2022-09-01T03:52:55;19.70;76.20
53254;DHT22;39148;53.332;6.922;2022-09-01T03:55:25;19.70;76.30
53254;DHT22;39148;53.332;6.922;2022-09-01T03:57:57;19.70;76.20
53254;DHT22;39148;53.332;6.922;2022-09-01T04:00:24;19.70;76.30
53254;DHT22;39148;53.332;6.922;2022-09-01T04:02:56;19.70;76.20
53254;DHT22;39148;53.332;6.922;2022-09-01T04:05:27;19.70;76.30
53254;DHT22;39148;53.332;6.922;2022-09-01T04:07:58;19.60;76.30
53254;DHT22;39148;53.332;6.922;2022-09-01T04:10:29;19.60;76.30
53254;DHT22;39148;53.332;6.922;2022-09-01T04:12:57;19.60;76.20
53254;DHT22;39148;53.332;6.922;2022-09-01T04:15:25;19.50;76.10
53254;DHT22;39148;53.332;6.922;2022-09-01T04:17:51;19.60;76.20
53254;DHT22;39148;53.332;6.922;2022-09-01T04:20:37;19.60;76.00
53254;DHT22;39148;53.332;6.922;2022-09-01T04:23:33;19.60;76.20
53254;DHT22;39148;53.332;6.922;2022-09-01T04:26:02;19.60;76.50
53254;DHT22;39148;53.332;6.922;2022-09-01T04:28:38;19.60;76.30
53254;DHT22;39148;53.332;6.922;2022-09-01T04:31:08;19.80;76.50
53254;DHT22;39148;53.332;6.922;2022-09-01T04:33:35;19.60;76.30
53254;DHT22;39148;53.332;6.922;2022-09-01T04:36:25;19.50;76.30
53254;DHT22;39148;53.332;6.922;2022-09-01T04:38:57;19.50;76.50
53254;DHT22;39148;53.332;6.922;2022-09-01T04:41:25;19.60;76.50
53254;DHT22;39148;53.332;6.922;2022-09-01T04:43:52;19.50;76.30
53254;DHT22;39148;53.332;6.922;2022-09-01T04:46:25;19.50;76.30
53254;DHT22;39148;53.332;6.922;2022-09-01T04:48:54;19.40;75.10
53254;DHT22;39148;53.332;6.922;2022-09-01T04:51:22;19.40;76.30
53254;DHT22;39148;53.332;6.922;2022-09-01T04:53:55;19.50;76.30
53254;DHT22;39148;53.332;6.922;2022-09-01T04:56:23;19.50;76.50
53254;DHT22;39148;53.332;6.922;2022-09-01T04:58:51;19.50;76.40
53254;DHT22;39148;53.332;6.922;2022-09-01T05:01:22;19.50;76.40
53254;DHT22;39148;53.332;6.922;2022-09-01T05:03:49;19.50;76.50
53254;DHT22;39148;53.332;6.922;2022-09-01T05:06:21;19.40;76.40
53254;DHT22;39148;53.332;6.922;2022-09-01T05:08:48;19.40;76.40
53254;DHT22;39148;53.332;6.922;2022-09-01T05:11:14;19.50;76.50
53254;DHT22;39148;53.332;6.922;2022-09-01T05:13:45;19.40;76.50
53254;DHT22;39148;53.332;6.922;2022-09-01T05:16:14;19.30;76.50
53254;DHT22;39148;53.332;6.922;2022-09-01T05:18:42;19.40;76.60
53254;DHT22;39148;53.332;6.922;2022-09-01T05:21:14;19.40;77.10
53254;DHT22;39148;53.332;6.922;2022-09-01T05:23:45;19.40;76.60
53254;DHT22;39148;53.332;6.922;2022-09-01T05:26:18;19.40;75.40
53254;DHT22;39148;53.332;6.922;2022-09-01T05:28:46;19.40;76.80
53254;DHT22;39148;53.332;6.922;2022-09-01T05:31:13;19.30;76.60
53254;DHT22;39148;53.332;6.922;2022-09-01T05:33:39;19.50;76.70
53254;DHT22;39148;53.332;6.922;2022-09-01T05:36:12;19.40;75.70
53254;DHT22;39148;53.332;6.922;2022-09-01T05:38:38;19.40;76.70
53254;DHT22;39148;53.332;6.922;2022-09-01T05:41:08;19.40;76.60
53254;DHT22;39148;53.332;6.922;2022-09-01T05:43:36;19.40;76.70
53254;DHT22;39148;53.332;6.922;2022-09-01T05:46:06;19.40;76.60
53254;DHT22;39148;53.332;6.922;2022-09-01T05:48:33;19.30;76.70
53254;DHT22;39148;53.332;6.922;2022-09-01T05:51:09;19.40;76.70
53254;DHT22;39148;53.332;6.922;2022-09-01T05:53:36;19.40;76.90
53254;DHT22;39148;53.332;6.922;2022-09-01T05:56:06;19.30;76.60
53254;DHT22;39148;53.332;6.922;2022-09-01T05:58:33;19.30;76.70
53254;DHT22;39148;53.332;6.922;2022-09-01T06:01:00;19.30;76.80
53254;DHT22;39148;53.332;6.922;2022-09-01T06:03:27;19.40;76.80
53254;DHT22;39148;53.332;6.922;2022-09-01T06:05:54;19.30;76.70
53254;DHT22;39148;53.332;6.922;2022-09-01T06:08:22;19.20;76.80
53254;DHT22;39148;53.332;6.922;2022-09-01T06:10:50;19.30;76.90
53254;DHT22;39148;53.332;6.922;2022-09-01T06:13:18;19.30;76.80
53254;DHT22;39148;53.332;6.922;2022-09-01T06:15:50;19.30;76.80
53254;DHT22;39148;53.332;6.922;2022-09-01T06:18:19;19.30;77.00
53254;DHT22;39148;53.332;6.922;2022-09-01T06:20:46;19.40;76.90
53254;DHT22;39148;53.332;6.922;2022-09-01T06:23:14;19.40;76.90
53254;DHT22;39148;53.332;6.922;2022-09-01T06:25:43;19.30;76.90
53254;DHT22;39148;53.332;6.922;2022-09-01T06:28:16;19.40;77.00
53254;DHT22;39148;53.332;6.922;2022-09-01T06:30:43;19.30;77.00
53254;DHT22;39148;53.332;6.922;2022-09-01T06:33:12;19.30;75.90
53254;DHT22;39148;53.332;6.922;2022-09-01T06:35:40;19.40;76.90
53254;DHT22;39148;53.332;6.922;2022-09-01T06:38:08;19.40;77.00
53254;DHT22;39148;53.332;6.922;2022-09-01T06:40:34;19.20;76.90
53254;DHT22;39148;53.332;6.922;2022-09-01T06:43:00;19.30;77.00
53254;DHT22;39148;53.332;6.922;2022-09-01T06:45:33;19.20;77.40
53254;DHT22;39148;53.332;6.922;2022-09-01T06:47:59;19.20;77.10
53254;DHT22;39148;53.332;6.922;2022-09-01T06:50:26;19.40;77.00
53254;DHT22;39148;53.332;6.922;2022-09-01T06:52:52;19.20;76.90
53254;DHT22;39148;53.332;6.922;2022-09-01T06:55:34;19.20;76.90
53254;DHT22;39148;53.332;6.922;2022-09-01T06:58:03;19.30;77.00
53254;DHT22;39148;53.332;6.922;2022-09-01T07:00:29;19.20;77.00
53254;DHT22;39148;53.332;6.922;2022-09-01T07:02:56;19.20;76.90
53254;DHT22;39148;53.332;6.922;2022-09-01T07:05:23;19.20;77.00
53254;DHT22;39148;53.332;6.922;2022-09-01T07:07:51;19.30;77.10
53254;DHT22;39148;53.332;6.922;2022-09-01T07:10:24;19.30;77.10
53254;DHT22;39148;53.332;6.922;2022-09-01T07:12:52;19.30;77.20
53254;DHT22;39148;53.332;6.922;2022-09-01T07:15:19;19.20;77.10
53254;DHT22;39148;53.332;6.922;2022-09-01T07:17:54;19.20;77.00
53254;DHT22;39148;53.332;6.922;2022-09-01T07:20:24;19.10;75.90
53254;DHT22;39148;53.332;6.922;2022-09-01T07:22:51;19.20;77.10
53254;DHT22;39148;53.332;6.922;2022-09-01T07:25:18;19.20;77.10
53254;DHT22;39148;53.332;6.922;2022-09-01T07:27:45;19.30;77.10
53254;DHT22;39148;53.332;6.922;2022-09-01T07:30:19;19.30;77.10
53254;DHT22;39148;53.332;6.922;2022-09-01T07:32:45;19.20;75.90
53254;DHT22;39148;53.332;6.922;2022-09-01T07:35:17;19.20;77.00
53254;DHT22;39148;53.332;6.922;2022-09-01T07:37:45;19.20;77.30
53254;DHT22;39148;53.332;6.922;2022-09-01T07:40:15;19.20;77.10
53254;DHT22;39148;53.332;6.922;2022-09-01T07:42:45;19.20;77.20
53254;DHT22;39148;53.332;6.922;2022-09-01T07:45:13;19.20;77.10
53254;DHT22;39148;53.332;6.922;2022-09-01T07:47:42;19.30;77.20
53254;DHT22;39148;53.332;6.922;2022-09-01T07:50:10;19.20;77.10
53254;DHT22;39148;53.332;6.922;2022-09-01T07:52:38;19.30;77.20
53254;DHT22;39148;53.332;6.922;2022-09-01T07:55:12;19.30;77.30
53254;DHT22;39148;53.332;6.922;2022-09-01T07:57:42;19.30;77.40
53254;DHT22;39148;53.332;6.922;2022-09-01T08:00:14;19.20;77.20
53254;DHT22;39148;53.332;6.922;2022-09-01T08:02:41;19.20;77.20
53254;DHT22;39148;53.332;6.922;2022-09-01T08:05:13;19.30;77.30
53254;DHT22;39148;53.332;6.922;2022-09-01T08:07:43;19.20;77.30
53254;DHT22;39148;53.332;6.922;2022-09-01T08:10:11;19.20;77.20
53254;DHT22;39148;53.332;6.922;2022-09-01T08:12:37;19.30;77.10
53254;DHT22;39148;53.332;6.922;2022-09-01T08:15:05;19.30;77.10
53254;DHT22;39148;53.332;6.922;2022-09-01T08:17:32;19.30;77.00
53254;DHT22;39148;53.332;6.922;2022-09-01T08:19:57;19.30;77.20
53254;DHT22;39148;53.332;6.922;2022-09-01T08:22:23;19.40;77.00
53254;DHT22;39148;53.332;6.922;2022-09-01T08:24:53;19.40;77.20
53254;DHT22;39148;53.332;6.922;2022-09-01T08:27:19;19.40;77.40
53254;DHT22;39148;53.332;6.922;2022-09-01T08:29:45;19.40;77.20
53254;DHT22;39148;53.332;6.922;2022-09-01T08:32:11;19.40;77.10
53254;DHT22;39148;53.332;6.922;2022-09-01T08:34:37;19.40;77.00
53254;DHT22;39148;53.332;6.922;2022-09-01T08:37:04;19.40;77.10
53254;DHT22;39148;53.332;6.922;2022-09-01T08:39:30;19.40;77.10
53254;DHT22;39148;53.332;6.922;2022-09-01T08:42:12;19.50;77.00
53254;DHT22;39148;53.332;6.922;2022-09-01T08:47:18;19.50;77.30
53254;DHT22;39148;53.332;6.922;2022-09-01T08:49:45;19.40;77.50
53254;DHT22;39148;53.332;6.922;2022-09-01T08:52:37;19.40;77.10
53254;DHT22;39148;53.332;6.922;2022-09-01T08:55:27;19.50;76.20
53254;DHT22;39148;53.332;6.922;2022-09-01T08:57:56;19.50;77.20
53254;DHT22;39148;53.332;6.922;2022-09-01T09:00:31;19.60;77.00
53254;DHT22;39148;53.332;6.922;2022-09-01T09:08:31;19.70;76.00
53254;DHT22;39148;53.332;6.922;2022-09-01T09:11:09;19.70;76.00
53254;DHT22;39148;53.332;6.922;2022-09-01T09:16:34;19.70;75.80
53254;DHT22;39148;53.332;6.922;2022-09-01T09:19:07;19.60;75.80
53254;DHT22;39148;53.332;6.922;2022-09-01T09:21:44;19.70;77.00
53254;DHT22;39148;53.332;6.922;2022-09-01T09:24:30;19.80;77.10
53254;DHT22;39148;53.332;6.922;2022-09-01T09:27:22;19.70;77.10
53254;DHT22;39148;53.332;6.922;2022-09-01T09:29:54;19.70;75.70
53254;DHT22;39148;53.332;6.922;2022-09-01T09:32:22;19.90;75.50
53254;DHT22;39148;53.332;6.922;2022-09-01T09:34:49;19.80;76.50
53254;DHT22;39148;53.332;6.922;2022-09-01T09:37:35;19.90;76.50
53254;DHT22;39148;53.332;6.922;2022-09-01T09:42:29;20.00;76.70
53254;DHT22;39148;53.332;6.922;2022-09-01T09:44:55;20.00;76.30
53254;DHT22;39148;53.332;6.922;2022-09-01T09:47:35;20.10;76.50
53254;DHT22;39148;53.332;6.922;2022-09-01T09:52:45;20.10;76.70
53254;DHT22;39148;53.332;6.922;2022-09-01T09:55:28;20.20;76.50
53254;DHT22;39148;53.332;6.922;2022-09-01T09:57:59;20.20;77.10
53254;DHT22;39148;53.332;6.922;2022-09-01T10:00:31;20.30;77.00
53254;DHT22;39148;53.332;6.922;2022-09-01T10:03:01;20.20;77.10
53254;DHT22;39148;53.332;6.922;2022-09-01T10:05:35;20.20;77.10
53254;DHT22;39148;53.332;6.922;2022-09-01T10:08:03;20.10;75.90
53254;DHT22;39148;53.332;6.922;2022-09-01T10:10:46;20.30;77.20
53254;DHT22;39148;53.332;6.922;2022-09-01T10:13:18;20.30;76.20
53254;DHT22;39148;53.332;6.922;2022-09-01T10:15:55;20.40;77.40
53254;DHT22;39148;53.332;6.922;2022-09-01T10:18:31;20.40;77.40
53254;DHT22;39148;53.332;6.922;2022-09-01T10:23:34;20.60;77.10
53254;DHT22;39148;53.332;6.922;2022-09-01T10:26:08;20.50;76.90
53254;DHT22;39148;53.332;6.922;2022-09-01T10:29:07;20.60;77.00
53254;DHT22;39148;53.332;6.922;2022-09-01T10:31:32;20.50;77.00
53254;DHT22;39148;53.332;6.922;2022-09-01T10:34:01;20.70;76.80
53254;DHT22;39148;53.332;6.922;2022-09-01T10:36:28;20.70;76.70
53254;DHT22;39148;53.332;6.922;2022-09-01T10:38:55;20.80;76.60
53254;DHT22;39148;53.332;6.922;2022-09-01T10:44:36;20.80;75.60
53254;DHT22;39148;53.332;6.922;2022-09-01T10:47:22;20.80;75.50
53254;DHT22;39148;53.332;6.922;2022-09-01T10:56:03;20.90;76.30
53254;DHT22;39148;53.332;6.922;2022-09-01T11:01:03;21.00;75.10
53254;DHT22;39148;53.332;6.922;2022-09-01T11:03:35;21.10;75.70
53254;DHT22;39148;53.332;6.922;2022-09-01T11:06:03;21.20;75.90
53254;DHT22;39148;53.332;6.922;2022-09-01T11:13:55;21.30;74.50
53254;DHT22;39148;53.332;6.922;2022-09-01T11:16:38;21.20;74.10
53254;DHT22;39148;53.332;6.922;2022-09-01T11:19:37;21.10;74.20
53254;DHT22;39148;53.332;6.922;2022-09-01T11:22:13;21.30;74.30
53254;DHT22;39148;53.332;6.922;2022-09-01T11:27:11;21.40;74.90
53254;DHT22;39148;53.332;6.922;2022-09-01T11:29:58;21.40;74.80
53254;DHT22;39148;53.332;6.922;2022-09-01T11:32:35;21.40;73.70
53254;DHT22;39148;53.332;6.922;2022-09-01T11:35:11;21.50;74.70
53254;DHT22;39148;53.332;6.922;2022-09-01T11:37:41;21.50;74.40
53254;DHT22;39148;53.332;6.922;2022-09-01T11:40:08;21.60;74.20
53254;DHT22;39148;53.332;6.922;2022-09-01T11:42:42;21.60;74.10
53254;DHT22;39148;53.332;6.922;2022-09-01T11:45:13;21.60;74.10
53254;DHT22;39148;53.332;6.922;2022-09-01T11:47:43;21.60;73.90
53254;DHT22;39148;53.332;6.922;2022-09-01T11:50:19;21.80;73.80
53254;DHT22;39148;53.332;6.922;2022-09-01T11:53:00;21.60;73.70
53254;DHT22;39148;53.332;6.922;2022-09-01T11:55:34;21.80;72.60
53254;DHT22;39148;53.332;6.922;2022-09-01T11:58:00;21.80;73.70
53254;DHT22;39148;53.332;6.922;2022-09-01T12:00:30;21.80;73.50
53254;DHT22;39148;53.332;6.922;2022-09-01T12:02:56;21.90;73.50
53254;DHT22;39148;53.332;6.922;2022-09-01T12:05:36;21.80;73.30
53254;DHT22;39148;53.332;6.922;2022-09-01T12:08:14;21.90;73.60
53254;DHT22;39148;53.332;6.922;2022-09-01T12:10:44;21.90;73.50
53254;DHT22;39148;53.332;6.922;2022-09-01T12:13:21;22.00;73.30
53254;DHT22;39148;53.332;6.922;2022-09-01T12:15:55;22.10;73.50
53254;DHT22;39148;53.332;6.922;2022-09-01T12:18:26;21.90;73.40
53254;DHT22;39148;53.332;6.922;2022-09-01T12:20:57;22.10;73.20
53254;DHT22;39148;53.332;6.922;2022-09-01T12:25:58;22.10;72.90
53254;DHT22;39148;53.332;6.922;2022-09-01T12:28:27;22.30;72.90
53254;DHT22;39148;53.332;6.922;2022-09-01T12:31:03;22.20;72.80
53254;DHT22;39148;53.332;6.922;2022-09-01T12:33:30;22.20;72.80
53254;DHT22;39148;53.332;6.922;2022-09-01T12:36:25;22.30;72.60
53254;DHT22;39148;53.332;6.922;2022-09-01T12:38:54;22.30;71.60
53254;DHT22;39148;53.332;6.922;2022-09-01T12:41:34;22.40;72.50
53254;DHT22;39148;53.332;6.922;2022-09-01T12:46:51;22.40;71.30
53254;DHT22;39148;53.332;6.922;2022-09-01T12:49:21;22.40;72.00
53254;DHT22;39148;53.332;6.922;2022-09-01T12:52:04;22.60;72.20
53254;DHT22;39148;53.332;6.922;2022-09-01T12:54:30;22.50;72.10
53254;DHT22;39148;53.332;6.922;2022-09-01T12:56:57;22.50;71.80
53254;DHT22;39148;53.332;6.922;2022-09-01T12:59:25;22.70;71.90
53254;DHT22;39148;53.332;6.922;2022-09-01T13:01:51;22.80;72.00
53254;DHT22;39148;53.332;6.922;2022-09-01T13:06:46;22.70;71.70
53254;DHT22;39148;53.332;6.922;2022-09-01T13:09:11;22.70;71.60
53254;DHT22;39148;53.332;6.922;2022-09-01T13:11:38;22.70;71.50
53254;DHT22;39148;53.332;6.922;2022-09-01T13:14:04;22.80;71.60
53254;DHT22;39148;53.332;6.922;2022-09-01T13:16:29;22.80;71.30
53254;DHT22;39148;53.332;6.922;2022-09-01T13:18:55;22.80;71.30
53254;DHT22;39148;53.332;6.922;2022-09-01T13:21:21;22.90;71.20
53254;DHT22;39148;53.332;6.922;2022-09-01T13:23:47;23.00;71.20
53254;DHT22;39148;53.332;6.922;2022-09-01T13:26:14;23.10;71.70
53254;DHT22;39148;53.332;6.922;2022-09-01T13:28:40;23.00;71.10
53254;DHT22;39148;53.332;6.922;2022-09-01T13:31:06;23.00;71.10
53254;DHT22;39148;53.332;6.922;2022-09-01T13:33:34;23.00;71.00
53254;DHT22;39148;53.332;6.922;2022-09-01T13:36:00;23.00;71.20
53254;DHT22;39148;53.332;6.922;2022-09-01T13:38:26;23.20;71.20
53254;DHT22;39148;53.332;6.922;2022-09-01T13:40:52;23.20;71.20
53254;DHT22;39148;53.332;6.922;2022-09-01T13:43:20;23.20;71.20
53254;DHT22;39148;53.332;6.922;2022-09-01T13:45:47;23.20;71.30
53254;DHT22;39148;53.332;6.922;2022-09-01T13:48:13;23.20;71.20
53254;DHT22;39148;53.332;6.922;2022-09-01T13:50:40;23.10;71.20
53254;DHT22;39148;53.332;6.922;2022-09-01T13:53:06;23.40;71.40
53254;DHT22;39148;53.332;6.922;2022-09-01T13:55:35;23.40;71.40
53254;DHT22;39148;53.332;6.922;2022-09-01T13:58:03;23.40;71.40
53254;DHT22;39148;53.332;6.922;2022-09-01T14:00:32;23.30;71.00
53254;DHT22;39148;53.332;6.922;2022-09-01T14:03:03;23.40;71.30
53254;DHT22;39148;53.332;6.922;2022-09-01T14:05:35;23.60;71.30
53254;DHT22;39148;53.332;6.922;2022-09-01T14:08:02;23.60;71.40
53254;DHT22;39148;53.332;6.922;2022-09-01T14:10:29;23.50;70.80
53254;DHT22;39148;53.332;6.922;2022-09-01T14:12:57;23.60;71.20
53254;DHT22;39148;53.332;6.922;2022-09-01T14:15:23;23.50;71.00
53254;DHT22;39148;53.332;6.922;2022-09-01T14:17:52;23.70;70.90
53254;DHT22;39148;53.332;6.922;2022-09-01T14:20:24;23.70;71.10
53254;DHT22;39148;53.332;6.922;2022-09-01T14:22:51;23.70;71.20
53254;DHT22;39148;53.332;6.922;2022-09-01T14:25:19;23.80;70.90
53254;DHT22;39148;53.332;6.922;2022-09-01T14:27:46;23.70;70.80
53254;DHT22;39148;53.332;6.922;2022-09-01T14:30:24;23.70;70.80
53254;DHT22;39148;53.332;6.922;2022-09-01T14:32:50;24.00;71.10
53254;DHT22;39148;53.332;6.922;2022-09-01T14:35:21;23.90;70.70
53254;DHT22;39148;53.332;6.922;2022-09-01T14:37:50;23.90;70.10
53254;DHT22;39148;53.332;6.922;2022-09-01T14:40:17;24.00;70.70
53254;DHT22;39148;53.332;6.922;2022-09-01T14:42:46;24.00;70.70
53254;DHT22;39148;53.332;6.922;2022-09-01T14:45:15;24.10;70.80
53254;DHT22;39148;53.332;6.922;2022-09-01T14:47:43;24.10;70.70
53254;DHT22;39148;53.332;6.922;2022-09-01T14:50:10;24.10;70.70
53254;DHT22;39148;53.332;6.922;2022-09-01T14:52:36;24.10;70.40
53254;DHT22;39148;53.332;6.922;2022-09-01T14:55:03;24.20;70.30
53254;DHT22;39148;53.332;6.922;2022-09-01T14:57:30;24.10;70.30
53254;DHT22;39148;53.332;6.922;2022-09-01T14:59:57;24.10;70.40
53254;DHT22;39148;53.332;6.922;2022-09-01T15:02:23;24.20;70.30
53254;DHT22;39148;53.332;6.922;2022-09-01T15:04:50;24.10;70.10
53254;DHT22;39148;53.332;6.922;2022-09-01T15:07:16;24.30;70.20
53254;DHT22;39148;53.332;6.922;2022-09-01T15:09:41;24.30;70.10
53254;DHT22;39148;53.332;6.922;2022-09-01T15:12:08;24.30;69.90
53254;DHT22;39148;53.332;6.922;2022-09-01T15:14:34;24.30;69.80
53254;DHT22;39148;53.332;6.922;2022-09-01T15:17:00;24.40;69.90
53254;DHT22;39148;53.332;6.922;2022-09-01T15:19:26;24.40;69.70
53254;DHT22;39148;53.332;6.922;2022-09-01T15:21:52;24.40;69.60
53254;DHT22;39148;53.332;6.922;2022-09-01T15:24:18;24.40;69.70
53254;DHT22;39148;53.332;6.922;2022-09-01T15:26:43;24.50;69.80
53254;DHT22;39148;53.332;6.922;2022-09-01T15:29:12;24.40;69.70
53254;DHT22;39148;53.332;6.922;2022-09-01T15:31:41;24.40;69.70
53254;DHT22;39148;53.332;6.922;2022-09-01T15:34:10;24.50;69.80
53254;DHT22;39148;53.332;6.922;2022-09-01T15:36:39;24.50;69.70
53254;DHT22;39148;53.332;6.922;2022-09-01T15:39:06;24.60;69.80
53254;DHT22;39148;53.332;6.922;2022-09-01T15:41:32;24.60;69.60
53254;DHT22;39148;53.332;6.922;2022-09-01T15:44:00;24.50;69.50
53254;DHT22;39148;53.332;6.922;2022-09-01T15:46:26;24.50;69.40
53254;DHT22;39148;53.332;6.922;2022-09-01T15:49:01;24.60;69.30
53254;DHT22;39148;53.332;6.922;2022-09-01T15:51:35;24.60;69.40
53254;DHT22;39148;53.332;6.922;2022-09-01T15:54:08;24.50;68.10
53254;DHT22;39148;53.332;6.922;2022-09-01T15:56:34;24.70;68.20
53254;DHT22;39148;53.332;6.922;2022-09-01T15:59:00;24.60;69.10
53254;DHT22;39148;53.332;6.922;2022-09-01T16:01:26;24.70;69.20
53254;DHT22;39148;53.332;6.922;2022-09-01T16:03:54;24.70;69.20
53254;DHT22;39148;53.332;6.922;2022-09-01T16:06:20;24.70;69.20
53254;DHT22;39148;53.332;6.922;2022-09-01T16:08:48;24.80;69.20
53254;DHT22;39148;53.332;6.922;2022-09-01T16:11:14;24.80;69.10
53254;DHT22;39148;53.332;6.922;2022-09-01T16:13:41;24.80;69.00
53254;DHT22;39148;53.332;6.922;2022-09-01T16:19:26;24.70;68.10
53254;DHT22;39148;53.332;6.922;2022-09-01T16:22:22;24.80;68.00
53254;DHT22;39148;53.332;6.922;2022-09-01T16:24:53;24.80;68.10
53254;DHT22;39148;53.332;6.922;2022-09-01T16:27:40;24.70;69.10
53254;DHT22;39148;53.332;6.922;2022-09-01T16:30:08;24.80;69.20
53254;DHT22;39148;53.332;6.922;2022-09-01T16:32:37;24.90;68.60
53254;DHT22;39148;53.332;6.922;2022-09-01T16:35:04;24.80;69.00
53254;DHT22;39148;53.332;6.922;2022-09-01T16:38:00;24.80;68.70